sensor_id;sensor_type;location;lat;lon;timestamp;P1;durP1;ratioP1;P2;durP2;ratioP2
49578;SDS011;35483;50.828;3.228;2023-02-28T00:01:24;9.80;;;7.35;;
49578;SDS011;35483;50.828;3.228;2023-02-28T00:03:50;10.27;;;7.85;;
49578;SDS011;35483;50.828;3.228;2023-02-28T00:06:16;8.13;;;7.30;;
49578;SDS011;35483;50.828;3.228;2023-02-28T00:08:42;8.23;;;7.43;;
49578;SDS011;35483;50.828;3.228;2023-02-28T00:11:09;8.77;;;7.88;;
49578;SDS011;35483;50.828;3.228;2023-02-28T00:13:37;11.65;;;8.30;;
49578;SDS011;35483;50.828;3.228;2023-02-28T00:16:05;8.75;;;7.85;;
49578;SDS011;35483;50.828;3.228;2023-02-28T00:18:33;8.57;;;7.65;;
49578;SDS011;35483;50.828;3.228;2023-02-28T00:20:59;8.27;;;7.47;;
49578;SDS011;35483;50.828;3.228;2023-02-28T00:23:26;9.38;;;7.38;;
49578;SDS011;35483;50.828;3.228;2023-02-28T00:25:52;9.40;;;7.93;;
49578;SDS011;35483;50.828;3.228;2023-02-28T00:28:17;10.88;;;7.35;;
49578;SDS011;35483;50.828;3.228;2023-02-28T00:30:43;8.68;;;7.82;;
49578;SDS011;35483;50.828;3.228;2023-02-28T00:33:09;8.95;;;7.97;;
49578;SDS011;35483;50.828;3.228;2023-02-28T00:35:35;9.23;;;8.32;;
49578;SDS011;35483;50.828;3.228;2023-02-28T00:38:01;8.73;;;7.82;;
49578;SDS011;35483;50.828;3.228;2023-02-28T00:40:27;9.35;;;8.35;;
49578;SDS011;35483;50.828;3.228;2023-02-28T00:42:53;12.70;;;9.15;;
49578;SDS011;35483;50.828;3.228;2023-02-28T00:45:18;9.63;;;8.65;;
49578;SDS011;35483;50.828;3.228;2023-02-28T00:47:44;10.05;;;8.93;;
49578;SDS011;35483;50.828;3.228;2023-02-28T00:50:11;10.20;;;9.20;;
49578;SDS011;35483;50.828;3.228;2023-02-28T00:52:37;9.73;;;8.82;;
49578;SDS011;35483;50.828;3.228;2023-02-28T00:55:03;10.30;;;9.30;;
49578;SDS011;35483;50.828;3.228;2023-02-28T00:57:32;12.30;;;9.13;;
49578;SDS011;35483;50.828;3.228;2023-02-28T01:00:01;9.70;;;8.68;;
49578;SDS011;35483;50.828;3.228;2023-02-28T01:04:59;11.65;;;9.35;;
49578;SDS011;35483;50.828;3.228;2023-02-28T01:07:24;9.98;;;8.82;;
49578;SDS011;35483;50.828;3.228;2023-02-28T01:09:50;11.70;;;10.38;;
49578;SDS011;35483;50.828;3.228;2023-02-28T01:12:16;10.63;;;9.20;;
49578;SDS011;35483;50.828;3.228;2023-02-28T01:14:43;12.55;;;9.20;;
49578;SDS011;35483;50.828;3.228;2023-02-28T01:17:12;10.43;;;9.38;;
49578;SDS011;35483;50.828;3.228;2023-02-28T01:19:37;12.13;;;9.38;;
49578;SDS011;35483;50.828;3.228;2023-02-28T01:22:04;13.77;;;9.65;;
49578;SDS011;35483;50.828;3.228;2023-02-28T01:24:34;10.35;;;8.73;;
49578;SDS011;35483;50.828;3.228;2023-02-28T01:26:59;10.10;;;8.88;;
49578;SDS011;35483;50.828;3.228;2023-02-28T01:29:25;9.65;;;8.75;;
49578;SDS011;35483;50.828;3.228;2023-02-28T01:31:51;11.40;;;9.55;;
49578;SDS011;35483;50.828;3.228;2023-02-28T01:34:17;11.40;;;9.10;;
49578;SDS011;35483;50.828;3.228;2023-02-28T01:36:44;9.82;;;8.82;;
49578;SDS011;35483;50.828;3.228;2023-02-28T01:39:10;11.15;;;9.75;;
49578;SDS011;35483;50.828;3.228;2023-02-28T01:41:37;10.40;;;8.75;;
49578;SDS011;35483;50.828;3.228;2023-02-28T01:44:05;12.45;;;10.02;;
49578;SDS011;35483;50.828;3.228;2023-02-28T01:46:51;10.98;;;9.95;;
49578;SDS011;35483;50.828;3.228;2023-02-28T01:49:17;9.43;;;8.52;;
49578;SDS011;35483;50.828;3.228;2023-02-28T01:51:48;11.23;;;9.32;;
49578;SDS011;35483;50.828;3.228;2023-02-28T01:54:18;13.57;;;9.82;;
49578;SDS011;35483;50.828;3.228;2023-02-28T01:59:22;10.65;;;9.57;;
49578;SDS011;35483;50.828;3.228;2023-02-28T02:02:13;11.88;;;10.13;;
49578;SDS011;35483;50.828;3.228;2023-02-28T02:04:45;10.52;;;9.57;;
49578;SDS011;35483;50.828;3.228;2023-02-28T02:07:23;13.02;;;10.18;;
49578;SDS011;35483;50.828;3.228;2023-02-28T02:09:59;12.00;;;10.27;;
49578;SDS011;35483;50.828;3.228;2023-02-28T02:23:53;12.77;;;10.60;;
49578;SDS011;35483;50.828;3.228;2023-02-28T02:40:20;11.20;;;9.93;;
49578;SDS011;35483;50.828;3.228;2023-02-28T02:45:31;11.90;;;10.73;;
49578;SDS011;35483;50.828;3.228;2023-02-28T02:48:03;11.65;;;10.55;;
49578;SDS011;35483;50.828;3.228;2023-02-28T02:50:41;11.93;;;10.52;;
49578;SDS011;35483;50.828;3.228;2023-02-28T02:53:10;11.95;;;10.75;;
49578;SDS011;35483;50.828;3.228;2023-02-28T02:55:43;13.48;;;10.80;;
49578;SDS011;35483;50.828;3.228;2023-02-28T02:58:13;12.48;;;10.88;;
49578;SDS011;35483;50.828;3.228;2023-02-28T03:00:44;12.65;;;11.35;;
49578;SDS011;35483;50.828;3.228;2023-02-28T03:03:12;15.07;;;11.30;;
49578;SDS011;35483;50.828;3.228;2023-02-28T03:05:46;11.95;;;10.82;;
49578;SDS011;35483;50.828;3.228;2023-02-28T03:08:14;13.20;;;11.60;;
49578;SDS011;35483;50.828;3.228;2023-02-28T03:10:41;14.18;;;12.75;;
49578;SDS011;35483;50.828;3.228;2023-02-28T03:16:21;13.15;;;11.85;;
49578;SDS011;35483;50.828;3.228;2023-02-28T03:24:21;13.43;;;12.07;;
49578;SDS011;35483;50.828;3.228;2023-02-28T03:26:58;12.50;;;11.20;;
49578;SDS011;35483;50.828;3.228;2023-02-28T03:29:57;13.30;;;11.82;;
49578;SDS011;35483;50.828;3.228;2023-02-28T03:32:47;14.10;;;12.60;;
49578;SDS011;35483;50.828;3.228;2023-02-28T03:35:19;14.45;;;12.80;;
49578;SDS011;35483;50.828;3.228;2023-02-28T03:37:49;14.55;;;12.75;;
49578;SDS011;35483;50.828;3.228;2023-02-28T03:40:21;14.88;;;12.40;;
49578;SDS011;35483;50.828;3.228;2023-02-28T03:42:52;13.65;;;12.20;;
49578;SDS011;35483;50.828;3.228;2023-02-28T03:45:24;13.68;;;12.27;;
49578;SDS011;35483;50.828;3.228;2023-02-28T03:48:16;13.95;;;12.50;;
49578;SDS011;35483;50.828;3.228;2023-02-28T03:50:47;14.60;;;12.98;;
49578;SDS011;35483;50.828;3.228;2023-02-28T03:53:24;15.10;;;13.52;;
49578;SDS011;35483;50.828;3.228;2023-02-28T03:55:56;15.00;;;13.38;;
49578;SDS011;35483;50.828;3.228;2023-02-28T03:58:42;16.38;;;13.65;;
49578;SDS011;35483;50.828;3.228;2023-02-28T04:01:38;15.65;;;12.80;;
49578;SDS011;35483;50.828;3.228;2023-02-28T04:04:07;16.60;;;12.75;;
49578;SDS011;35483;50.828;3.228;2023-02-28T04:06:34;14.55;;;13.05;;
49578;SDS011;35483;50.828;3.228;2023-02-28T04:09:01;17.20;;;14.25;;
49578;SDS011;35483;50.828;3.228;2023-02-28T04:11:36;15.65;;;13.38;;
49578;SDS011;35483;50.828;3.228;2023-02-28T04:14:04;14.68;;;12.60;;
49578;SDS011;35483;50.828;3.228;2023-02-28T04:16:32;13.82;;;12.23;;
49578;SDS011;35483;50.828;3.228;2023-02-28T04:18:59;14.95;;;12.15;;
49578;SDS011;35483;50.828;3.228;2023-02-28T04:21:29;13.90;;;12.50;;
49578;SDS011;35483;50.828;3.228;2023-02-28T04:23:59;13.48;;;11.90;;
49578;SDS011;35483;50.828;3.228;2023-02-28T04:26:32;13.07;;;11.63;;
49578;SDS011;35483;50.828;3.228;2023-02-28T04:29:00;13.20;;;11.77;;
49578;SDS011;35483;50.828;3.228;2023-02-28T04:31:26;14.45;;;12.40;;
49578;SDS011;35483;50.828;3.228;2023-02-28T04:33:52;13.70;;;12.15;;
49578;SDS011;35483;50.828;3.228;2023-02-28T04:36:18;13.40;;;12.02;;
49578;SDS011;35483;50.828;3.228;2023-02-28T04:38:44;14.07;;;12.23;;
49578;SDS011;35483;50.828;3.228;2023-02-28T04:41:10;16.58;;;12.93;;
49578;SDS011;35483;50.828;3.228;2023-02-28T04:43:36;13.18;;;11.80;;
49578;SDS011;35483;50.828;3.228;2023-02-28T04:46:03;14.73;;;12.65;;
49578;SDS011;35483;50.828;3.228;2023-02-28T04:48:31;12.68;;;10.68;;
49578;SDS011;35483;50.828;3.228;2023-02-28T04:51:08;14.60;;;11.75;;
49578;SDS011;35483;50.828;3.228;2023-02-28T04:53:36;12.00;;;10.80;;
49578;SDS011;35483;50.828;3.228;2023-02-28T04:56:04;13.57;;;12.18;;
49578;SDS011;35483;50.828;3.228;2023-02-28T04:58:31;15.77;;;11.98;;
49578;SDS011;35483;50.828;3.228;2023-02-28T05:01:06;12.95;;;11.55;;
49578;SDS011;35483;50.828;3.228;2023-02-28T05:03:41;12.50;;;11.07;;
49578;SDS011;35483;50.828;3.228;2023-02-28T05:06:08;11.95;;;10.70;;
49578;SDS011;35483;50.828;3.228;2023-02-28T05:08:34;12.98;;;10.95;;
49578;SDS011;35483;50.828;3.228;2023-02-28T05:11:00;12.93;;;11.50;;
49578;SDS011;35483;50.828;3.228;2023-02-28T05:13:27;12.45;;;11.00;;
49578;SDS011;35483;50.828;3.228;2023-02-28T05:15:53;13.65;;;12.05;;
49578;SDS011;35483;50.828;3.228;2023-02-28T05:18:19;13.38;;;11.45;;
49578;SDS011;35483;50.828;3.228;2023-02-28T05:20:45;11.98;;;10.70;;
49578;SDS011;35483;50.828;3.228;2023-02-28T05:23:12;14.25;;;11.10;;
49578;SDS011;35483;50.828;3.228;2023-02-28T05:25:42;13.05;;;11.05;;
49578;SDS011;35483;50.828;3.228;2023-02-28T05:28:08;15.27;;;12.05;;
49578;SDS011;35483;50.828;3.228;2023-02-28T05:30:35;14.05;;;12.00;;
49578;SDS011;35483;50.828;3.228;2023-02-28T05:33:03;13.02;;;11.70;;
49578;SDS011;35483;50.828;3.228;2023-02-28T05:35:28;14.02;;;11.55;;
49578;SDS011;35483;50.828;3.228;2023-02-28T05:37:54;12.25;;;10.82;;
49578;SDS011;35483;50.828;3.228;2023-02-28T05:40:23;15.73;;;10.85;;
49578;SDS011;35483;50.828;3.228;2023-02-28T05:42:50;13.00;;;11.10;;
49578;SDS011;35483;50.828;3.228;2023-02-28T05:45:17;15.20;;;10.90;;
49578;SDS011;35483;50.828;3.228;2023-02-28T05:47:42;13.68;;;11.57;;
49578;SDS011;35483;50.828;3.228;2023-02-28T05:50:08;13.48;;;11.18;;
49578;SDS011;35483;50.828;3.228;2023-02-28T05:52:35;13.15;;;10.55;;
49578;SDS011;35483;50.828;3.228;2023-02-28T05:55:02;13.52;;;11.25;;
49578;SDS011;35483;50.828;3.228;2023-02-28T05:57:28;12.50;;;10.80;;
49578;SDS011;35483;50.828;3.228;2023-02-28T05:59:56;12.55;;;10.25;;
49578;SDS011;35483;50.828;3.228;2023-02-28T06:02:24;12.60;;;10.10;;
49578;SDS011;35483;50.828;3.228;2023-02-28T06:04:52;11.95;;;10.75;;
49578;SDS011;35483;50.828;3.228;2023-02-28T06:07:18;11.68;;;10.45;;
49578;SDS011;35483;50.828;3.228;2023-02-28T06:09:44;13.70;;;10.38;;
49578;SDS011;35483;50.828;3.228;2023-02-28T06:12:10;13.27;;;10.68;;
49578;SDS011;35483;50.828;3.228;2023-02-28T06:14:35;12.65;;;10.43;;
49578;SDS011;35483;50.828;3.228;2023-02-28T06:17:02;12.52;;;10.57;;
49578;SDS011;35483;50.828;3.228;2023-02-28T06:19:28;10.98;;;9.88;;
49578;SDS011;35483;50.828;3.228;2023-02-28T06:21:55;10.55;;;9.45;;
49578;SDS011;35483;50.828;3.228;2023-02-28T06:24:25;10.95;;;9.73;;
49578;SDS011;35483;50.828;3.228;2023-02-28T06:26:54;12.27;;;9.43;;
49578;SDS011;35483;50.828;3.228;2023-02-28T06:29:20;13.48;;;10.05;;
49578;SDS011;35483;50.828;3.228;2023-02-28T06:31:45;12.48;;;11.18;;
49578;SDS011;35483;50.828;3.228;2023-02-28T06:34:12;14.32;;;11.20;;
49578;SDS011;35483;50.828;3.228;2023-02-28T06:36:39;13.48;;;11.73;;
49578;SDS011;35483;50.828;3.228;2023-02-28T06:39:06;15.00;;;11.55;;
49578;SDS011;35483;50.828;3.228;2023-02-28T06:41:33;12.43;;;11.10;;
49578;SDS011;35483;50.828;3.228;2023-02-28T06:44:16;14.40;;;11.50;;
49578;SDS011;35483;50.828;3.228;2023-02-28T06:46:43;17.73;;;12.02;;
49578;SDS011;35483;50.828;3.228;2023-02-28T06:49:09;15.85;;;12.38;;
49578;SDS011;35483;50.828;3.228;2023-02-28T06:51:36;16.52;;;12.38;;
49578;SDS011;35483;50.828;3.228;2023-02-28T06:54:04;13.13;;;11.70;;
49578;SDS011;35483;50.828;3.228;2023-02-28T06:56:31;15.25;;;12.48;;
49578;SDS011;35483;50.828;3.228;2023-02-28T06:58:58;13.13;;;11.50;;
49578;SDS011;35483;50.828;3.228;2023-02-28T07:01:23;12.98;;;11.27;;
49578;SDS011;35483;50.828;3.228;2023-02-28T07:03:49;14.48;;;11.63;;
49578;SDS011;35483;50.828;3.228;2023-02-28T07:06:17;14.43;;;11.18;;
49578;SDS011;35483;50.828;3.228;2023-02-28T07:08:43;14.80;;;11.52;;
49578;SDS011;35483;50.828;3.228;2023-02-28T07:11:09;14.23;;;11.77;;
49578;SDS011;35483;50.828;3.228;2023-02-28T07:13:35;12.85;;;11.32;;
49578;SDS011;35483;50.828;3.228;2023-02-28T07:16:02;13.93;;;11.63;;
49578;SDS011;35483;50.828;3.228;2023-02-28T07:18:30;14.05;;;11.68;;
49578;SDS011;35483;50.828;3.228;2023-02-28T07:20:56;13.38;;;11.95;;
49578;SDS011;35483;50.828;3.228;2023-02-28T07:23:23;14.25;;;12.60;;
49578;SDS011;35483;50.828;3.228;2023-02-28T07:25:49;14.88;;;12.57;;
49578;SDS011;35483;50.828;3.228;2023-02-28T07:28:17;14.52;;;12.40;;
49578;SDS011;35483;50.828;3.228;2023-02-28T07:30:43;15.77;;;12.50;;
49578;SDS011;35483;50.828;3.228;2023-02-28T07:33:09;14.80;;;12.50;;
49578;SDS011;35483;50.828;3.228;2023-02-28T07:35:35;13.32;;;11.55;;
49578;SDS011;35483;50.828;3.228;2023-02-28T07:38:01;14.50;;;12.70;;
49578;SDS011;35483;50.828;3.228;2023-02-28T07:40:28;13.80;;;11.63;;
49578;SDS011;35483;50.828;3.228;2023-02-28T07:42:53;13.23;;;11.60;;
49578;SDS011;35483;50.828;3.228;2023-02-28T07:45:20;14.00;;;10.60;;
49578;SDS011;35483;50.828;3.228;2023-02-28T07:47:46;13.00;;;10.95;;
49578;SDS011;35483;50.828;3.228;2023-02-28T07:50:13;11.82;;;10.63;;
49578;SDS011;35483;50.828;3.228;2023-02-28T07:52:40;14.20;;;9.98;;
49578;SDS011;35483;50.828;3.228;2023-02-28T07:55:06;13.68;;;10.98;;
49578;SDS011;35483;50.828;3.228;2023-02-28T07:57:34;12.30;;;9.82;;
49578;SDS011;35483;50.828;3.228;2023-02-28T08:00:00;11.90;;;9.57;;
49578;SDS011;35483;50.828;3.228;2023-02-28T08:02:26;10.95;;;9.65;;
49578;SDS011;35483;50.828;3.228;2023-02-28T08:04:52;12.30;;;10.20;;
49578;SDS011;35483;50.828;3.228;2023-02-28T08:07:17;14.07;;;9.88;;
49578;SDS011;35483;50.828;3.228;2023-02-28T08:12:12;11.65;;;9.52;;
49578;SDS011;35483;50.828;3.228;2023-02-28T08:14:38;11.18;;;9.60;;
49578;SDS011;35483;50.828;3.228;2023-02-28T08:17:06;12.60;;;9.75;;
49578;SDS011;35483;50.828;3.228;2023-02-28T08:19:32;11.98;;;9.85;;
49578;SDS011;35483;50.828;3.228;2023-02-28T08:21:58;10.68;;;9.55;;
49578;SDS011;35483;50.828;3.228;2023-02-28T08:24:23;9.93;;;8.93;;
49578;SDS011;35483;50.828;3.228;2023-02-28T08:26:49;15.20;;;9.57;;
49578;SDS011;35483;50.828;3.228;2023-02-28T08:29:15;13.10;;;8.68;;
49578;SDS011;35483;50.828;3.228;2023-02-28T08:31:41;10.18;;;8.15;;
49578;SDS011;35483;50.828;3.228;2023-02-28T08:34:08;9.43;;;7.03;;
49578;SDS011;35483;50.828;3.228;2023-02-28T08:39:04;10.90;;;7.70;;
49578;SDS011;35483;50.828;3.228;2023-02-28T08:41:37;7.07;;;6.38;;
49578;SDS011;35483;50.828;3.228;2023-02-28T08:44:03;8.68;;;7.07;;
49578;SDS011;35483;50.828;3.228;2023-02-28T08:46:29;7.75;;;6.55;;
49578;SDS011;35483;50.828;3.228;2023-02-28T08:48:55;7.90;;;6.65;;
49578;SDS011;35483;50.828;3.228;2023-02-28T08:51:25;8.15;;;5.80;;
49578;SDS011;35483;50.828;3.228;2023-02-28T08:53:54;10.00;;;6.90;;
49578;SDS011;35483;50.828;3.228;2023-02-28T08:56:21;11.13;;;6.38;;
49578;SDS011;35483;50.828;3.228;2023-02-28T08:58:47;6.88;;;5.63;;
49578;SDS011;35483;50.828;3.228;2023-02-28T09:01:18;10.90;;;5.68;;
49578;SDS011;35483;50.828;3.228;2023-02-28T09:03:46;7.15;;;5.63;;
49578;SDS011;35483;50.828;3.228;2023-02-28T09:06:14;6.55;;;5.68;;
49578;SDS011;35483;50.828;3.228;2023-02-28T09:08:43;6.63;;;5.40;;
49578;SDS011;35483;50.828;3.228;2023-02-28T09:11:11;7.35;;;5.10;;
49578;SDS011;35483;50.828;3.228;2023-02-28T09:13:38;7.63;;;5.22;;
49578;SDS011;35483;50.828;3.228;2023-02-28T09:16:06;6.05;;;5.13;;
49578;SDS011;35483;50.828;3.228;2023-02-28T09:18:34;5.47;;;4.90;;
49578;SDS011;35483;50.828;3.228;2023-02-28T09:21:04;13.48;;;5.25;;
49578;SDS011;35483;50.828;3.228;2023-02-28T09:23:31;9.70;;;5.47;;
49578;SDS011;35483;50.828;3.228;2023-02-28T09:25:58;9.68;;;5.40;;
49578;SDS011;35483;50.828;3.228;2023-02-28T09:28:23;6.72;;;5.13;;
49578;SDS011;35483;50.828;3.228;2023-02-28T09:30:51;5.03;;;4.60;;
49578;SDS011;35483;50.828;3.228;2023-02-28T09:33:18;6.88;;;4.95;;
49578;SDS011;35483;50.828;3.228;2023-02-28T09:35:48;5.53;;;4.80;;
49578;SDS011;35483;50.828;3.228;2023-02-28T09:38:15;5.63;;;5.10;;
49578;SDS011;35483;50.828;3.228;2023-02-28T09:40:50;7.18;;;5.20;;
49578;SDS011;35483;50.828;3.228;2023-02-28T09:43:22;7.22;;;5.25;;
49578;SDS011;35483;50.828;3.228;2023-02-28T09:48:37;6.43;;;4.50;;
49578;SDS011;35483;50.828;3.228;2023-02-28T09:51:14;6.57;;;4.93;;
49578;SDS011;35483;50.828;3.228;2023-02-28T09:54:00;9.10;;;5.47;;
49578;SDS011;35483;50.828;3.228;2023-02-28T09:56:28;5.88;;;5.20;;
49578;SDS011;35483;50.828;3.228;2023-02-28T09:59:17;9.32;;;5.35;;
49578;SDS011;35483;50.828;3.228;2023-02-28T10:09:58;6.10;;;4.43;;
49578;SDS011;35483;50.828;3.228;2023-02-28T10:12:27;7.47;;;4.80;;
49578;SDS011;35483;50.828;3.228;2023-02-28T10:14:55;6.70;;;4.47;;
49578;SDS011;35483;50.828;3.228;2023-02-28T10:17:25;5.55;;;3.95;;
49578;SDS011;35483;50.828;3.228;2023-02-28T10:19:58;4.30;;;3.80;;
49578;SDS011;35483;50.828;3.228;2023-02-28T10:22:31;6.00;;;4.18;;
49578;SDS011;35483;50.828;3.228;2023-02-28T10:25:26;7.53;;;4.60;;
49578;SDS011;35483;50.828;3.228;2023-02-28T10:27:53;4.07;;;3.10;;
49578;SDS011;35483;50.828;3.228;2023-02-28T10:30:30;3.70;;;2.67;;
49578;SDS011;35483;50.828;3.228;2023-02-28T10:32:57;4.88;;;2.50;;
49578;SDS011;35483;50.828;3.228;2023-02-28T10:35:24;3.40;;;3.10;;
49578;SDS011;35483;50.828;3.228;2023-02-28T10:38:00;1.98;;;1.88;;
49578;SDS011;35483;50.828;3.228;2023-02-28T10:40:43;3.42;;;1.77;;
49578;SDS011;35483;50.828;3.228;2023-02-28T10:51:08;3.10;;;2.60;;
49578;SDS011;35483;50.828;3.228;2023-02-28T10:53:45;4.43;;;2.45;;
49578;SDS011;35483;50.828;3.228;2023-02-28T10:56:20;3.03;;;2.30;;
49578;SDS011;35483;50.828;3.228;2023-02-28T10:58:57;3.25;;;2.60;;
49578;SDS011;35483;50.828;3.228;2023-02-28T11:01:48;3.20;;;2.50;;
49578;SDS011;35483;50.828;3.228;2023-02-28T11:04:19;3.13;;;2.50;;
49578;SDS011;35483;50.828;3.228;2023-02-28T11:06:58;2.70;;;2.50;;
49578;SDS011;35483;50.828;3.228;2023-02-28T11:11:54;4.55;;;2.90;;
49578;SDS011;35483;50.828;3.228;2023-02-28T11:14:21;2.70;;;2.50;;
49578;SDS011;35483;50.828;3.228;2023-02-28T11:16:51;4.00;;;2.85;;
49578;SDS011;35483;50.828;3.228;2023-02-28T11:19:25;4.13;;;2.83;;
49578;SDS011;35483;50.828;3.228;2023-02-28T11:21:57;3.63;;;2.95;;
49578;SDS011;35483;50.828;3.228;2023-02-28T11:26:58;3.22;;;2.92;;
49578;SDS011;35483;50.828;3.228;2023-02-28T11:29:26;2.92;;;2.72;;
49578;SDS011;35483;50.828;3.228;2023-02-28T11:32:04;3.67;;;3.00;;
49578;SDS011;35483;50.828;3.228;2023-02-28T11:34:40;3.65;;;2.83;;
49578;SDS011;35483;50.828;3.228;2023-02-28T11:37:16;3.40;;;2.80;;
49578;SDS011;35483;50.828;3.228;2023-02-28T11:39:45;3.88;;;2.90;;
49578;SDS011;35483;50.828;3.228;2023-02-28T12:18:22;3.75;;;3.10;;
49578;SDS011;35483;50.828;3.228;2023-02-28T12:24:28;3.50;;;3.20;;
49578;SDS011;35483;50.828;3.228;2023-02-28T12:27:17;3.63;;;3.05;;
49578;SDS011;35483;50.828;3.228;2023-02-28T12:32:42;4.90;;;3.13;;
49578;SDS011;35483;50.828;3.228;2023-02-28T12:35:12;3.22;;;3.00;;
49578;SDS011;35483;50.828;3.228;2023-02-28T12:40:45;3.45;;;3.15;;
49578;SDS011;35483;50.828;3.228;2023-02-28T12:43:20;3.47;;;3.17;;
49578;SDS011;35483;50.828;3.228;2023-02-28T12:45:55;3.40;;;3.10;;
49578;SDS011;35483;50.828;3.228;2023-02-28T12:48:26;4.20;;;3.28;;
49578;SDS011;35483;50.828;3.228;2023-02-28T12:51:01;3.50;;;3.17;;
49578;SDS011;35483;50.828;3.228;2023-02-28T12:53:35;3.75;;;3.33;;
49578;SDS011;35483;50.828;3.228;2023-02-28T13:08:03;3.55;;;3.25;;
49578;SDS011;35483;50.828;3.228;2023-02-28T13:10:41;3.00;;;2.80;;
49578;SDS011;35483;50.828;3.228;2023-02-28T13:13:16;3.47;;;3.00;;
49578;SDS011;35483;50.828;3.228;2023-02-28T13:16:01;3.70;;;3.20;;
49578;SDS011;35483;50.828;3.228;2023-02-28T13:18:33;4.72;;;2.65;;
49578;SDS011;35483;50.828;3.228;2023-02-28T13:21:09;3.15;;;2.85;;
49578;SDS011;35483;50.828;3.228;2023-02-28T13:34:35;2.70;;;2.50;;
49578;SDS011;35483;50.828;3.228;2023-02-28T13:47:33;3.97;;;2.78;;
49578;SDS011;35483;50.828;3.228;2023-02-28T13:58:39;3.40;;;2.58;;
49578;SDS011;35483;50.828;3.228;2023-02-28T14:06:45;3.47;;;2.60;;
49578;SDS011;35483;50.828;3.228;2023-02-28T14:09:21;3.60;;;2.50;;
49578;SDS011;35483;50.828;3.228;2023-02-28T14:11:51;3.85;;;2.40;;
49578;SDS011;35483;50.828;3.228;2023-02-28T14:17:03;2.22;;;2.03;;
49578;SDS011;35483;50.828;3.228;2023-02-28T14:19:34;2.92;;;2.45;;
49578;SDS011;35483;50.828;3.228;2023-02-28T14:30:28;2.78;;;2.58;;
49578;SDS011;35483;50.828;3.228;2023-02-28T14:33:22;2.75;;;2.55;;
49578;SDS011;35483;50.828;3.228;2023-02-28T14:36:04;2.50;;;2.30;;
49578;SDS011;35483;50.828;3.228;2023-02-28T14:38:40;2.70;;;2.50;;
49578;SDS011;35483;50.828;3.228;2023-02-28T14:41:51;2.70;;;2.50;;
49578;SDS011;35483;50.828;3.228;2023-02-28T14:44:20;2.60;;;2.40;;
49578;SDS011;35483;50.828;3.228;2023-02-28T14:46:50;3.28;;;2.80;;
49578;SDS011;35483;50.828;3.228;2023-02-28T14:49:29;2.63;;;2.40;;
49578;SDS011;35483;50.828;3.228;2023-02-28T14:52:07;3.17;;;2.85;;
49578;SDS011;35483;50.828;3.228;2023-02-28T14:54:53;3.03;;;2.70;;
49578;SDS011;35483;50.828;3.228;2023-02-28T14:57:28;5.47;;;2.95;;
49578;SDS011;35483;50.828;3.228;2023-02-28T15:00:15;2.65;;;2.45;;
49578;SDS011;35483;50.828;3.228;2023-02-28T15:02:46;3.33;;;3.03;;
49578;SDS011;35483;50.828;3.228;2023-02-28T15:10:13;3.88;;;3.47;;
49578;SDS011;35483;50.828;3.228;2023-02-28T15:12:47;4.35;;;2.70;;
49578;SDS011;35483;50.828;3.228;2023-02-28T15:15:55;3.08;;;2.78;;
49578;SDS011;35483;50.828;3.228;2023-02-28T15:18:27;3.88;;;2.83;;
49578;SDS011;35483;50.828;3.228;2023-02-28T15:21:14;4.50;;;3.28;;
49578;SDS011;35483;50.828;3.228;2023-02-28T15:23:46;4.15;;;3.75;;
49578;SDS011;35483;50.828;3.228;2023-02-28T15:26:22;2.95;;;2.67;;
49578;SDS011;35483;50.828;3.228;2023-02-28T15:29:00;4.13;;;3.28;;
49578;SDS011;35483;50.828;3.228;2023-02-28T15:31:35;3.03;;;2.83;;
49578;SDS011;35483;50.828;3.228;2023-02-28T15:34:19;3.33;;;3.03;;
49578;SDS011;35483;50.828;3.228;2023-02-28T15:36:47;3.65;;;3.08;;
49578;SDS011;35483;50.828;3.228;2023-02-28T15:39:20;3.30;;;3.00;;
49578;SDS011;35483;50.828;3.228;2023-02-28T15:41:48;5.15;;;3.40;;
49578;SDS011;35483;50.828;3.228;2023-02-28T15:44:16;5.03;;;3.40;;
49578;SDS011;35483;50.828;3.228;2023-02-28T15:49:26;4.70;;;4.30;;
49578;SDS011;35483;50.828;3.228;2023-02-28T15:51:55;4.47;;;4.07;;
49578;SDS011;35483;50.828;3.228;2023-02-28T15:54:28;4.03;;;3.38;;
49578;SDS011;35483;50.828;3.228;2023-02-28T15:57:01;5.10;;;3.50;;
49578;SDS011;35483;50.828;3.228;2023-02-28T15:59:35;4.07;;;3.30;;
49578;SDS011;35483;50.828;3.228;2023-02-28T16:02:49;4.07;;;3.67;;
49578;SDS011;35483;50.828;3.228;2023-02-28T16:04:58;3.47;;;3.17;;
49578;SDS011;35483;50.828;3.228;2023-02-28T16:07:36;4.25;;;3.70;;
49578;SDS011;35483;50.828;3.228;2023-02-28T16:10:04;5.18;;;3.80;;
49578;SDS011;35483;50.828;3.228;2023-02-28T16:12:31;6.20;;;3.90;;
49578;SDS011;35483;50.828;3.228;2023-02-28T16:15:03;4.55;;;4.00;;
49578;SDS011;35483;50.828;3.228;2023-02-28T16:17:34;4.13;;;3.83;;
49578;SDS011;35483;50.828;3.228;2023-02-28T16:20:22;4.53;;;4.07;;
49578;SDS011;35483;50.828;3.228;2023-02-28T16:22:50;3.92;;;3.58;;
49578;SDS011;35483;50.828;3.228;2023-02-28T16:25:19;6.63;;;4.15;;
49578;SDS011;35483;50.828;3.228;2023-02-28T16:27:48;7.03;;;4.22;;
49578;SDS011;35483;50.828;3.228;2023-02-28T16:30:26;5.70;;;3.70;;
49578;SDS011;35483;50.828;3.228;2023-02-28T16:32:57;4.13;;;3.58;;
49578;SDS011;35483;50.828;3.228;2023-02-28T16:35:23;4.25;;;3.85;;
49578;SDS011;35483;50.828;3.228;2023-02-28T16:37:52;3.70;;;3.40;;
49578;SDS011;35483;50.828;3.228;2023-02-28T16:40:21;4.22;;;3.83;;
49578;SDS011;35483;50.828;3.228;2023-02-28T16:42:51;4.40;;;3.53;;
49578;SDS011;35483;50.828;3.228;2023-02-28T16:45:23;4.20;;;3.75;;
49578;SDS011;35483;50.828;3.228;2023-02-28T16:47:52;5.00;;;4.10;;
49578;SDS011;35483;50.828;3.228;2023-02-28T16:50:20;5.30;;;3.50;;
49578;SDS011;35483;50.828;3.228;2023-02-28T16:52:51;4.75;;;4.28;;
49578;SDS011;35483;50.828;3.228;2023-02-28T16:55:19;4.18;;;3.83;;
49578;SDS011;35483;50.828;3.228;2023-02-28T17:00:17;6.25;;;4.43;;
49578;SDS011;35483;50.828;3.228;2023-02-28T17:02:43;6.25;;;3.97;;
49578;SDS011;35483;50.828;3.228;2023-02-28T17:05:10;4.82;;;4.30;;
49578;SDS011;35483;50.828;3.228;2023-02-28T17:07:36;6.28;;;4.97;;
49578;SDS011;35483;50.828;3.228;2023-02-28T17:10:13;4.57;;;4.15;;
49578;SDS011;35483;50.828;3.228;2023-02-28T17:12:40;4.80;;;4.40;;
49578;SDS011;35483;50.828;3.228;2023-02-28T17:15:06;5.05;;;4.55;;
49578;SDS011;35483;50.828;3.228;2023-02-28T17:17:36;5.63;;;4.88;;
49578;SDS011;35483;50.828;3.228;2023-02-28T17:20:03;7.97;;;5.78;;
49578;SDS011;35483;50.828;3.228;2023-02-28T17:22:29;10.95;;;7.85;;
49578;SDS011;35483;50.828;3.228;2023-02-28T17:24:56;10.55;;;7.57;;
49578;SDS011;35483;50.828;3.228;2023-02-28T17:27:26;9.38;;;6.85;;
49578;SDS011;35483;50.828;3.228;2023-02-28T17:29:52;9.73;;;7.05;;
49578;SDS011;35483;50.828;3.228;2023-02-28T17:32:18;4.93;;;4.43;;
49578;SDS011;35483;50.828;3.228;2023-02-28T17:34:45;5.65;;;4.80;;
49578;SDS011;35483;50.828;3.228;2023-02-28T17:37:16;5.90;;;5.00;;
49578;SDS011;35483;50.828;3.228;2023-02-28T17:39:44;6.35;;;4.78;;
49578;SDS011;35483;50.828;3.228;2023-02-28T17:42:10;5.20;;;4.70;;
49578;SDS011;35483;50.828;3.228;2023-02-28T17:44:38;6.93;;;5.60;;
49578;SDS011;35483;50.828;3.228;2023-02-28T17:47:05;5.93;;;4.80;;
49578;SDS011;35483;50.828;3.228;2023-02-28T17:49:31;5.15;;;4.65;;
49578;SDS011;35483;50.828;3.228;2023-02-28T17:51:58;5.30;;;4.85;;
49578;SDS011;35483;50.828;3.228;2023-02-28T17:54:23;5.13;;;4.68;;
49578;SDS011;35483;50.828;3.228;2023-02-28T17:56:49;5.10;;;4.60;;
49578;SDS011;35483;50.828;3.228;2023-02-28T17:59:18;6.20;;;5.43;;